»·PEaware :: OOFDT L52-L88

OOFDT :: L52-L88

FLIGHT INFORMATION

Flight Status: Arrived
Operator: Unknown
More flights by this operator :: More flights under this callsign
Pilot: Filip . (22793)
Aircraft: CESSNA 172 SKYHAWK
(C172)
More flights by this aircraft type
Origin: L52 Oceano Co
United States
Destination: L88 New Cuyama
United States
More flights between these airports :: More routes between these airports
Route:
File this flight plan on PilotEdge
Remarks: cat1 flight plan
Altitude:
(Current/Filed)
7,500ft
Speed:
(Current/Filed)
100kts
Departed: 02-Jan-19 11:33 AM
Arrived: 02-Jan-19 12:06 PM
Distance/Time
Traveled:
47nm/0:33
Distance/Time
To Go:
Arrived

Flight Plot

Page will automatically refresh every two minutes.


Map Options




Map Legend


Flown Route
Filed Route
Departure Airport
Arrival Airport
Navaid (VOR, NDB)
Fix

Horizontal Profiles

Position Reports

Time Latitude Longitude Heading Altitude Ground
Speed
02-Jan-19 11:11 35.103552 -120.624283 214 18ft 0kts
02-Jan-19 11:12 35.103552 -120.624283 214 18ft 0kts
02-Jan-19 11:13 35.103552 -120.624283 214 18ft 0kts
02-Jan-19 11:14 35.103552 -120.624284 214 18ft 0kts
02-Jan-19 11:15 35.103552 -120.624284 214 18ft 0kts
02-Jan-19 11:16 35.103552 -120.624284 214 18ft 0kts
02-Jan-19 11:17 35.103552 -120.624284 214 18ft 0kts
02-Jan-19 11:18 35.103552 -120.624284 214 18ft 0kts
02-Jan-19 11:19 35.103552 -120.624284 214 18ft 0kts
02-Jan-19 11:20 35.103552 -120.624284 214 18ft 0kts
02-Jan-19 11:21 35.103552 -120.624284 214 18ft 0kts
02-Jan-19 11:22 35.103552 -120.624284 214 18ft 0kts
02-Jan-19 11:23 35.103552 -120.624284 214 18ft 0kts
02-Jan-19 11:24 35.103327 -120.624132 121 18ft 9kts
02-Jan-19 11:25 35.100988 -120.622205 121 18ft 19kts
02-Jan-19 11:26 35.099594 -120.619543 89 18ft 0kts
02-Jan-19 11:28 35.099594 -120.619542 88 18ft 0kts
02-Jan-19 11:29 35.099594 -120.619543 88 18ft 0kts
02-Jan-19 11:30 35.099594 -120.619543 88 18ft 0kts
02-Jan-19 11:31 35.099594 -120.619543 88 18ft 0kts
02-Jan-19 11:32 35.099998 -120.619406 307 18ft 0kts
02-Jan-19 11:33 35.102082 -120.623272 303 32ft 75kts
02-Jan-19 11:34 35.111737 -120.643232 259 1178ft 76kts
02-Jan-19 11:35 35.097510 -120.641150 98 2342ft 60kts
02-Jan-19 11:36 35.094375 -120.618260 99 3291ft 72kts
02-Jan-19 11:37 35.093399 -120.594415 86 4258ft 73kts
02-Jan-19 11:38 35.091929 -120.569370 104 5174ft 77kts
02-Jan-19 11:39 35.086992 -120.543700 97 6015ft 81kts
02-Jan-19 11:40 35.083041 -120.516820 97 6845ft 81kts
02-Jan-19 11:41 35.078010 -120.489497 97 7413ft 87kts
02-Jan-19 11:42 35.072274 -120.457937 91 7564ft 98kts
02-Jan-19 11:43 35.067894 -120.424337 96 7594ft 102kts
02-Jan-19 11:44 35.062862 -120.390220 91 7604ft 103kts
02-Jan-19 11:44 35.058382 -120.361031 97 7582ft 105kts
02-Jan-19 11:45 35.052965 -120.326381 97 7566ft 105kts
02-Jan-19 11:47 35.043876 -120.286063 89 7549ft 104kts
02-Jan-19 11:48 35.038960 -120.251016 100 7536ft 106kts
02-Jan-19 11:48 35.034180 -120.221747 96 7526ft 105kts
02-Jan-19 11:50 35.026199 -120.181130 93 7517ft 104kts
02-Jan-19 11:50 35.022776 -120.151873 95 7512ft 105kts
02-Jan-19 11:51 35.016616 -120.116912 97 7508ft 105kts
02-Jan-19 11:52 35.010641 -120.081908 92 7506ft 104kts
02-Jan-19 11:53 35.004710 -120.047059 97 7503ft 105kts
02-Jan-19 11:54 34.997977 -120.012279 99 7505ft 105kts
02-Jan-19 11:55 34.991812 -119.977445 98 7508ft 105kts
02-Jan-19 11:56 34.985188 -119.942430 98 7099ft 107kts
02-Jan-19 11:57 34.978412 -119.907108 99 6562ft 107kts
02-Jan-19 11:58 34.971339 -119.872178 98 6035ft 105kts
02-Jan-19 11:59 34.966029 -119.837289 99 5388ft 105kts
02-Jan-19 12:00 34.960394 -119.803002 98 4591ft 103kts
02-Jan-19 12:01 34.955147 -119.768988 100 3798ft 101kts
02-Jan-19 12:02 34.949051 -119.735714 97 3177ft 96kts
02-Jan-19 12:03 34.949224 -119.706411 114 2989ft 78kts
02-Jan-19 12:04 34.940445 -119.686999 107 2255ft 65kts
02-Jan-19 12:05 34.939863 -119.685300 297 2207ft 34kts
02-Jan-19 12:06 34.942700 -119.691137 11 2207ft 3kts
02-Jan-19 12:07 34.942660 -119.690579 207 2207ft 3kts
02-Jan-19 12:08 34.942734 -119.690749 12 2207ft 0kts
02-Jan-19 12:09 34.942734 -119.690749 12 2207ft 0kts
02-Jan-19 12:10 34.942734 -119.690749 12 2207ft 0kts
02-Jan-19 12:11 34.942734 -119.690749 12 2207ft 0kts
02-Jan-19 12:12 34.942734 -119.690749 12 2207ft 0kts
02-Jan-19 12:13 34.942734 -119.690749 12 2207ft 0kts
02-Jan-19 12:14 34.942734 -119.690749 12 2207ft 0kts
02-Jan-19 12:15 34.942734 -119.690749 12 2207ft 0kts
02-Jan-19 12:16 34.942734 -119.690749 12 2207ft 0kts

Navigation Log

Ident Type
Flight plan parsing failed, navigation log unavailable